createdAt,value
2018-03-03T00:00:07.723Z,79.70
2018-03-03T00:02:36.182Z,79.90
2018-03-03T00:05:04.289Z,79.80
2018-03-03T00:07:32.105Z,79.90
2018-03-03T00:09:59.901Z,79.90
2018-03-03T00:12:28.326Z,80.80
2018-03-03T00:14:56.021Z,80.70
2018-03-03T00:17:23.671Z,80.80
2018-03-03T00:19:51.299Z,80.40
2018-03-03T00:22:24.707Z,79.80
2018-03-03T00:24:52.363Z,79.40
2018-03-03T00:27:20.214Z,79.40
2018-03-03T00:29:47.901Z,79.50
2018-03-03T00:32:15.766Z,79.80
2018-03-03T00:34:43.505Z,80.50
2018-03-03T00:37:11.128Z,80.50
2018-03-03T00:39:38.733Z,80.60
2018-03-03T00:42:06.374Z,81.50
2018-03-03T00:44:33.979Z,80.70
2018-03-03T00:47:01.666Z,81.60
2018-03-03T00:49:29.475Z,81.30
2018-03-03T00:51:57.128Z,80.70
2018-03-03T00:54:24.739Z,81.00
2018-03-03T00:56:52.368Z,81.70
2018-03-03T00:59:20.008Z,81.80
2018-03-03T01:01:47.652Z,81.90
2018-03-03T01:04:16.244Z,82.50
2018-03-03T01:06:44.800Z,82.70
2018-03-03T01:09:12.512Z,82.70
2018-03-03T01:11:40.301Z,80.30
2018-03-03T01:14:08.261Z,80.70
2018-03-03T01:16:35.950Z,81.60
2018-03-03T01:19:03.578Z,81.00
2018-03-03T01:21:31.210Z,80.20
2018-03-03T01:24:01.567Z,80.80
2018-03-03T01:26:29.339Z,80.90
2018-03-03T01:28:57.003Z,81.20
2018-03-03T01:31:24.618Z,82.10
2018-03-03T01:33:53.025Z,82.00
2018-03-03T01:36:21.430Z,81.90
2018-03-03T01:38:49.152Z,81.90
2018-03-03T01:41:16.821Z,82.00
2018-03-03T01:43:44.435Z,82.40
2018-03-03T01:46:12.178Z,82.10
2018-03-03T01:48:39.838Z,82.40
2018-03-03T01:51:07.573Z,82.50
2018-03-03T01:53:35.230Z,82.60
2018-03-03T01:56:02.928Z,82.60
2018-03-03T01:58:30.551Z,83.10
2018-03-03T02:00:58.687Z,83.00
2018-03-03T02:03:27.678Z,81.60
2018-03-03T02:05:55.620Z,81.50
2018-03-03T02:08:23.223Z,81.50
2018-03-03T02:10:51.751Z,80.80
2018-03-03T02:13:19.529Z,80.80
2018-03-03T02:15:47.551Z,81.10
2018-03-03T02:18:15.299Z,82.10
2018-03-03T02:20:43.738Z,81.90
2018-03-03T02:23:11.469Z,81.90
2018-03-03T02:25:39.124Z,82.20
2018-03-03T02:28:06.757Z,81.40
2018-03-03T02:30:35.279Z,81.80
2018-03-03T02:33:03.827Z,81.90
2018-03-03T02:35:31.529Z,82.50
2018-03-03T02:37:59.175Z,82.90
2018-03-03T02:40:26.911Z,83.00
2018-03-03T02:42:55.932Z,83.00
2018-03-03T02:45:23.566Z,82.80
2018-03-03T02:47:51.221Z,83.30
2018-03-03T02:50:19.720Z,83.20
2018-03-03T02:52:47.543Z,83.30
2018-03-03T02:55:15.218Z,82.90
2018-03-03T02:57:43.616Z,83.00
2018-03-03T03:00:12.073Z,83.70
2018-03-03T03:02:39.703Z,83.70
2018-03-03T03:05:07.376Z,83.70
2018-03-03T03:07:35.024Z,83.70
2018-03-03T03:10:03.101Z,83.50
2018-03-03T03:12:30.728Z,83.40
2018-03-03T03:14:58.407Z,84.30
2018-03-03T03:17:26.054Z,83.30
2018-03-03T03:19:53.780Z,83.20
2018-03-03T03:22:21.513Z,83.50
2018-03-03T03:24:50.035Z,83.20
2018-03-03T03:27:18.425Z,83.20
2018-03-03T03:29:46.819Z,83.40
2018-03-03T03:32:15.328Z,83.40
2018-03-03T03:34:42.944Z,83.20
2018-03-03T03:37:11.370Z,83.20
2018-03-03T03:39:39.086Z,83.20
2018-03-03T03:42:06.697Z,83.30
2018-03-03T03:44:34.346Z,83.30
2018-03-03T03:47:01.990Z,83.30
2018-03-03T03:49:30.659Z,83.10
2018-03-03T03:51:58.300Z,83.10
2018-03-03T03:54:26.706Z,83.60
2018-03-03T03:56:54.372Z,83.50
2018-03-03T03:59:22.035Z,83.50
2018-03-03T04:01:49.658Z,83.60
2018-03-03T04:04:17.315Z,83.70
2018-03-03T04:06:44.979Z,83.50
2018-03-03T04:09:12.649Z,83.40
2018-03-03T04:11:40.457Z,83.60
2018-03-03T04:14:08.060Z,83.60
2018-03-03T04:16:35.776Z,83.60
2018-03-03T04:19:03.416Z,83.60
2018-03-03T04:21:31.093Z,83.60
2018-03-03T04:23:58.812Z,83.60
2018-03-03T04:26:27.220Z,83.20
2018-03-03T04:28:54.886Z,83.20
2018-03-03T04:31:22.576Z,83.20
2018-03-03T04:33:50.189Z,83.30
2018-03-03T04:36:18.653Z,83.40
2018-03-03T04:38:47.138Z,83.30
2018-03-03T04:41:14.758Z,83.60
2018-03-03T04:43:42.419Z,83.60
2018-03-03T04:46:10.054Z,83.50
2018-03-03T04:48:37.693Z,83.30
2018-03-03T04:51:06.092Z,83.50
2018-03-03T04:53:33.756Z,83.50
2018-03-03T04:56:01.385Z,83.50
2018-03-03T05:01:45.588Z,83.60
2018-03-03T05:04:15.982Z,83.70
2018-03-03T05:07:01.987Z,83.90
2018-03-03T05:09:30.517Z,84.00
2018-03-03T05:11:58.145Z,84.00
2018-03-03T05:14:43.553Z,84.00
2018-03-03T05:20:25.424Z,83.50
2018-03-03T05:22:59.520Z,83.90
2018-03-03T05:28:36.983Z,84.00
2018-03-03T05:31:10.610Z,84.30
2018-03-03T05:33:59.835Z,85.10
2018-03-03T05:36:33.050Z,85.00
2018-03-03T05:39:06.519Z,85.30
2018-03-03T05:41:50.033Z,85.80
2018-03-03T05:44:24.056Z,85.80
2018-03-03T05:47:07.567Z,85.70
2018-03-03T05:49:41.533Z,85.90
2018-03-03T05:52:24.044Z,85.90
2018-03-03T05:54:57.464Z,86.10
2018-03-03T05:57:44.884Z,86.40
2018-03-03T06:03:26.483Z,86.00
2018-03-03T06:05:59.675Z,86.00
2018-03-03T06:08:28.718Z,85.90
2018-03-03T06:10:57.774Z,85.80
2018-03-03T06:13:25.491Z,85.90
2018-03-03T06:15:53.185Z,85.70
2018-03-03T06:18:20.929Z,85.30
2018-03-03T06:20:48.541Z,85.10
2018-03-03T06:23:16.951Z,85.00
2018-03-03T06:25:44.730Z,85.30
2018-03-03T06:28:12.379Z,84.90
2018-03-03T06:30:40.758Z,84.70
2018-03-03T06:33:08.446Z,84.70
2018-03-03T06:35:36.118Z,84.50
2018-03-03T06:38:04.366Z,83.70
2018-03-03T06:40:32.125Z,83.20
2018-03-03T06:42:59.809Z,82.60
2018-03-03T06:45:27.461Z,81.90
2018-03-03T06:47:55.103Z,81.50
2018-03-03T06:50:22.943Z,80.90
2018-03-03T06:52:51.462Z,80.00
2018-03-03T06:55:19.073Z,80.00
2018-03-03T06:57:47.982Z,79.60
2018-03-03T07:00:16.402Z,79.50
2018-03-03T07:02:44.868Z,79.70
2018-03-03T07:05:12.592Z,79.70
2018-03-03T07:07:40.293Z,79.20
2018-03-03T07:10:08.642Z,79.30
2018-03-03T07:12:37.390Z,79.10
2018-03-03T07:15:21.757Z,79.10
2018-03-03T07:17:49.446Z,79.20
2018-03-03T07:20:17.068Z,78.90
2018-03-03T07:22:45.359Z,79.20
2018-03-03T07:25:13.844Z,78.50
2018-03-03T07:27:42.254Z,78.60
2018-03-03T07:30:09.952Z,78.60
2018-03-03T07:32:37.580Z,78.30
2018-03-03T07:35:05.286Z,78.60
2018-03-03T07:37:32.928Z,78.20
2018-03-03T07:40:00.664Z,77.80
2018-03-03T07:42:28.375Z,77.30
2018-03-03T07:44:56.050Z,77.30
2018-03-03T07:47:23.729Z,77.50
2018-03-03T07:49:52.166Z,77.10
2018-03-03T07:52:20.100Z,77.10
2018-03-03T07:54:47.755Z,76.90
2018-03-03T07:57:15.491Z,76.50
2018-03-03T07:59:43.955Z,76.10
2018-03-03T08:02:11.595Z,76.10
2018-03-03T08:04:39.202Z,76.20
2018-03-03T08:07:07.710Z,76.30
2018-03-03T08:09:36.356Z,75.50
2018-03-03T08:12:04.169Z,75.60
2018-03-03T08:14:31.823Z,74.80
2018-03-03T08:17:00.870Z,75.20
2018-03-03T08:19:28.511Z,74.70
2018-03-03T08:21:56.154Z,74.60
2018-03-03T08:24:23.791Z,74.00
2018-03-03T08:26:51.495Z,73.50
2018-03-03T08:29:19.146Z,74.10
2018-03-03T08:31:46.771Z,74.10
2018-03-03T08:34:14.579Z,73.20
2018-03-03T08:36:44.562Z,72.50
2018-03-03T08:39:12.273Z,72.00
2018-03-03T08:41:40.021Z,71.30
2018-03-03T08:44:07.719Z,70.80
2018-03-03T08:46:36.154Z,69.60
2018-03-03T08:49:04.347Z,69.50
2018-03-03T08:51:31.989Z,68.50
2018-03-03T08:53:59.668Z,69.20
2018-03-03T08:56:27.388Z,69.00
2018-03-03T08:58:55.092Z,69.50
2018-03-03T09:01:22.794Z,68.80
2018-03-03T09:03:51.230Z,67.30
2018-03-03T09:06:18.939Z,68.10
2018-03-03T09:08:46.590Z,67.80
2018-03-03T09:11:15.038Z,67.40
2018-03-03T09:13:42.825Z,67.40
2018-03-03T09:16:10.533Z,68.10
2018-03-03T09:18:38.258Z,69.20
2018-03-03T09:21:06.691Z,70.40
2018-03-03T09:23:34.316Z,70.40
2018-03-03T09:26:02.918Z,71.30
2018-03-03T09:28:30.533Z,71.30
2018-03-03T09:30:59.187Z,71.10
2018-03-03T09:33:27.835Z,70.90
2018-03-03T09:35:55.500Z,70.80
2018-03-03T09:38:23.230Z,70.90
2018-03-03T09:40:51.662Z,71.20
2018-03-03T09:43:19.335Z,71.20
2018-03-03T09:45:47.629Z,70.70
2018-03-03T09:48:15.298Z,71.50
2018-03-03T09:50:42.934Z,71.90
2018-03-03T09:53:10.619Z,71.70
2018-03-03T09:55:38.614Z,71.30
2018-03-03T09:58:07.074Z,71.40
2018-03-03T10:00:34.790Z,71.30
2018-03-03T10:03:02.474Z,71.20
2018-03-03T10:05:30.742Z,71.10
2018-03-03T10:07:58.524Z,70.50
2018-03-03T10:10:26.198Z,70.20
2018-03-03T10:12:53.919Z,69.90
2018-03-03T10:15:21.660Z,72.00
2018-03-03T10:17:49.350Z,69.40
2018-03-03T10:20:17.055Z,70.30
2018-03-03T10:22:45.639Z,69.90
2018-03-03T10:25:14.273Z,69.80
2018-03-03T10:27:41.943Z,69.60
2018-03-03T10:30:09.615Z,68.70
2018-03-03T10:32:37.361Z,69.00
2018-03-03T10:35:04.973Z,69.00
2018-03-03T10:37:33.436Z,69.50
2018-03-03T10:40:01.101Z,69.40
2018-03-03T10:42:28.983Z,69.60
2018-03-03T10:44:57.388Z,70.20
2018-03-03T10:47:25.055Z,70.20
2018-03-03T10:49:52.744Z,69.60
2018-03-03T10:52:20.407Z,68.00
2018-03-03T10:54:48.132Z,68.70
2018-03-03T10:57:15.935Z,68.10
2018-03-03T10:59:43.591Z,68.40
2018-03-03T11:02:11.537Z,65.90
2018-03-03T11:04:39.525Z,65.50
2018-03-03T11:07:07.179Z,65.50
2018-03-03T11:09:34.846Z,66.70
2018-03-03T11:12:02.514Z,67.10
2018-03-03T11:14:30.213Z,67.10
2018-03-03T11:16:57.927Z,66.50
2018-03-03T11:19:25.676Z,66.80
2018-03-03T11:21:53.465Z,67.40
2018-03-03T11:24:22.797Z,66.80
2018-03-03T11:26:51.327Z,67.80
2018-03-03T11:29:19.024Z,66.80
2018-03-03T11:31:47.173Z,67.20
2018-03-03T11:34:14.905Z,67.10
2018-03-03T11:36:42.555Z,65.90
2018-03-03T11:39:10.321Z,66.00
2018-03-03T11:41:38.752Z,66.60
2018-03-03T11:44:07.238Z,66.40
2018-03-03T11:46:35.698Z,65.80
2018-03-03T11:49:03.352Z,65.80
2018-03-03T11:51:31.025Z,66.20
2018-03-03T11:53:58.771Z,66.30
2018-03-03T11:56:27.200Z,66.30
2018-03-03T11:58:55.795Z,66.20
2018-03-03T12:01:23.503Z,66.90
2018-03-03T12:03:51.154Z,65.50
2018-03-03T12:06:18.823Z,67.10
2018-03-03T12:08:46.516Z,67.60
2018-03-03T12:11:14.230Z,67.20
2018-03-03T12:13:42.841Z,66.10
2018-03-03T12:16:10.453Z,66.00
2018-03-03T12:18:38.899Z,62.30
2018-03-03T12:21:06.585Z,62.20
2018-03-03T12:23:34.228Z,61.90
2018-03-03T12:26:01.820Z,61.60
2018-03-03T12:28:29.450Z,60.90
2018-03-03T12:30:57.087Z,61.60
2018-03-03T12:33:24.750Z,63.70
2018-03-03T12:35:52.438Z,64.20
2018-03-03T12:38:20.170Z,62.40
2018-03-03T12:40:47.944Z,61.00
2018-03-03T12:43:15.576Z,60.40
2018-03-03T12:45:43.234Z,58.70
2018-03-03T12:48:11.414Z,58.70
2018-03-03T12:50:39.296Z,59.50
2018-03-03T12:53:06.897Z,59.60
2018-03-03T12:55:34.584Z,58.50
2018-03-03T12:58:03.004Z,59.40
2018-03-03T13:00:30.750Z,59.40
2018-03-03T13:02:58.375Z,59.70
2018-03-03T13:05:26.033Z,59.60
2018-03-03T13:07:53.720Z,59.80
2018-03-03T13:10:21.360Z,58.70
2018-03-03T13:12:49.867Z,59.70
2018-03-03T13:15:17.484Z,59.60
2018-03-03T13:17:45.133Z,59.90
2018-03-03T13:20:12.817Z,61.60
2018-03-03T13:22:40.471Z,61.60
2018-03-03T13:25:08.178Z,60.70
2018-03-03T13:27:35.867Z,60.40
2018-03-03T13:30:03.624Z,60.10
2018-03-03T13:32:32.500Z,59.60
2018-03-03T13:35:00.197Z,59.40
2018-03-03T13:37:27.854Z,59.20
2018-03-03T13:39:55.705Z,59.50
2018-03-03T13:42:23.321Z,60.10
2018-03-03T13:44:51.756Z,60.60
2018-03-03T13:47:23.282Z,60.60
2018-03-03T13:49:51.031Z,60.60
2018-03-03T13:52:18.821Z,60.30
2018-03-03T13:54:47.331Z,60.30
2018-03-03T13:57:15.040Z,60.50
2018-03-03T13:59:42.715Z,59.80
2018-03-03T14:02:10.366Z,59.70
2018-03-03T14:04:37.994Z,59.30
2018-03-03T14:07:05.610Z,59.80
2018-03-03T14:09:33.363Z,59.80
2018-03-03T14:12:01.817Z,59.50
2018-03-03T14:14:30.257Z,59.00
2018-03-03T14:16:57.919Z,59.00
2018-03-03T14:19:26.606Z,59.60
2018-03-03T14:21:55.496Z,59.90
2018-03-03T14:24:24.031Z,60.90
2018-03-03T14:26:51.648Z,61.00
2018-03-03T14:29:20.356Z,61.10
2018-03-03T14:31:48.016Z,61.30
2018-03-03T14:34:16.850Z,60.80
2018-03-03T14:36:44.486Z,61.10
2018-03-03T14:39:12.156Z,60.80
2018-03-03T14:41:42.824Z,62.30
2018-03-03T14:44:10.609Z,61.30
2018-03-03T14:46:38.439Z,61.60
2018-03-03T14:49:06.846Z,61.80
2018-03-03T14:51:34.513Z,61.80
2018-03-03T14:54:03.099Z,61.70
2018-03-03T14:56:31.009Z,62.10
2018-03-03T14:58:59.322Z,62.20
2018-03-03T15:01:27.807Z,61.90
2018-03-03T15:03:55.634Z,63.30
2018-03-03T15:06:23.323Z,62.60
2018-03-03T15:08:51.013Z,62.80
2018-03-03T15:11:18.677Z,62.90
2018-03-03T15:13:46.414Z,63.30
2018-03-03T15:16:14.811Z,64.70
2018-03-03T15:18:42.538Z,64.70
2018-03-03T15:21:10.206Z,64.10
2018-03-03T15:23:38.635Z,65.40
2018-03-03T15:26:06.318Z,64.60
2018-03-03T15:28:33.958Z,64.60
2018-03-03T15:31:01.630Z,65.40
2018-03-03T15:33:29.355Z,65.60
2018-03-03T15:35:57.098Z,66.00
2018-03-03T15:38:25.501Z,67.00
2018-03-03T15:40:53.250Z,67.00
2018-03-03T15:43:21.707Z,67.10
2018-03-03T15:45:49.427Z,67.00
2018-03-03T15:48:17.122Z,67.70
2018-03-03T15:50:44.799Z,67.10
2018-03-03T15:53:13.265Z,68.00
2018-03-03T15:55:40.903Z,68.00
2018-03-03T15:58:08.505Z,68.10
2018-03-03T16:00:36.955Z,68.50
2018-03-03T16:03:04.603Z,68.40
2018-03-03T16:05:32.396Z,68.30
2018-03-03T16:08:00.017Z,68.30
2018-03-03T16:10:27.874Z,68.90
2018-03-03T16:12:56.385Z,68.70
2018-03-03T16:15:24.338Z,68.70
2018-03-03T16:17:52.111Z,69.00
2018-03-03T16:20:20.511Z,68.90
2018-03-03T16:22:48.195Z,69.10
2018-03-03T16:25:15.874Z,69.40
2018-03-03T16:27:43.595Z,69.40
2018-03-03T16:30:11.264Z,69.60
2018-03-03T16:32:39.006Z,70.00
2018-03-03T16:35:07.605Z,70.00
2018-03-03T16:37:35.274Z,70.00
2018-03-03T16:40:04.652Z,70.40
2018-03-03T16:42:32.358Z,70.30
2018-03-03T16:45:00.799Z,70.50
2018-03-03T16:47:28.513Z,70.50
2018-03-03T16:49:56.236Z,70.70
2018-03-03T16:52:23.919Z,70.70
2018-03-03T16:54:51.670Z,70.70
2018-03-03T16:57:20.186Z,70.90
2018-03-03T16:59:48.021Z,70.90
2018-03-03T17:02:16.435Z,71.60
2018-03-03T17:04:44.083Z,71.50
2018-03-03T17:07:12.679Z,70.90
2018-03-03T17:09:40.397Z,70.90
2018-03-03T17:12:08.242Z,70.80
2018-03-03T17:14:36.876Z,71.20
2018-03-03T17:17:04.573Z,71.30
2018-03-03T17:19:32.255Z,71.40
2018-03-03T17:21:59.916Z,71.60
2018-03-03T17:24:28.389Z,72.50
2018-03-03T17:26:56.213Z,71.10
2018-03-03T17:29:24.196Z,73.70
2018-03-03T17:31:51.983Z,74.40
2018-03-03T17:34:19.766Z,74.30
2018-03-03T17:36:47.580Z,73.20
2018-03-03T17:39:15.489Z,73.20
2018-03-03T17:41:43.177Z,73.00
2018-03-03T17:44:11.645Z,76.10
2018-03-03T17:46:39.559Z,75.20
2018-03-03T17:49:07.283Z,73.50
2018-03-03T17:51:35.180Z,73.90
2018-03-03T17:54:03.776Z,75.60
2018-03-03T17:56:31.454Z,75.90
2018-03-03T17:58:59.107Z,78.10
2018-03-03T18:01:26.884Z,78.40
2018-03-03T18:03:54.699Z,78.20
2018-03-03T18:06:23.338Z,77.30
2018-03-03T18:08:51.133Z,77.30
2018-03-03T18:11:18.850Z,78.60
2018-03-03T18:13:47.424Z,78.70
2018-03-03T18:16:15.930Z,79.20
2018-03-03T18:18:43.624Z,79.80
2018-03-03T18:21:11.388Z,80.40
2018-03-03T18:23:39.124Z,80.50
2018-03-03T18:26:06.776Z,80.70
2018-03-03T18:28:34.557Z,81.60
2018-03-03T18:31:02.253Z,81.20
2018-03-03T18:33:30.683Z,81.60
2018-03-03T18:35:59.109Z,81.30
2018-03-03T18:38:27.512Z,81.30
2018-03-03T18:40:55.254Z,81.30
2018-03-03T18:43:24.568Z,81.50
2018-03-03T18:45:52.254Z,81.50
2018-03-03T18:48:19.873Z,81.70
2018-03-03T18:50:48.359Z,83.00
2018-03-03T18:53:16.847Z,81.90
2018-03-03T18:55:45.599Z,80.30
2018-03-03T18:58:13.422Z,80.20
2018-03-03T19:00:41.234Z,80.50
2018-03-03T19:03:09.023Z,80.70
2018-03-03T19:05:37.564Z,81.80
2018-03-03T19:08:05.196Z,81.80
2018-03-03T19:10:32.849Z,82.30
2018-03-03T19:13:00.487Z,82.70
2018-03-03T19:15:28.922Z,82.90
2018-03-03T19:17:56.962Z,82.90
2018-03-03T19:20:24.768Z,82.90
2018-03-03T19:22:52.428Z,82.80
2018-03-03T19:25:20.285Z,82.50
2018-03-03T19:27:48.036Z,82.50
2018-03-03T19:30:15.686Z,82.60
2018-03-03T19:32:43.448Z,82.90
2018-03-03T19:35:11.216Z,82.60
2018-03-03T19:37:39.031Z,82.20
2018-03-03T19:40:07.700Z,82.40
2018-03-03T19:42:35.471Z,82.40
2018-03-03T19:45:03.141Z,82.60
2018-03-03T19:47:30.927Z,82.60
2018-03-03T19:49:58.688Z,83.20
2018-03-03T19:52:26.490Z,83.70
2018-03-03T19:54:54.166Z,83.90
2018-03-03T19:57:21.860Z,84.40
2018-03-03T19:59:50.354Z,85.20
2018-03-03T20:02:18.780Z,85.30
2018-03-03T20:04:46.648Z,85.30
2018-03-03T20:07:15.102Z,85.90
2018-03-03T20:09:42.795Z,85.80
2018-03-03T20:12:10.502Z,86.10
2018-03-03T20:14:40.345Z,86.70
2018-03-03T20:17:08.087Z,86.70
2018-03-03T20:19:36.520Z,86.60
2018-03-03T20:22:04.356Z,86.60
2018-03-03T20:24:32.088Z,86.60
2018-03-03T20:27:00.545Z,86.80
2018-03-03T20:29:28.377Z,86.80
2018-03-03T20:31:56.053Z,86.90
2018-03-03T20:34:24.307Z,86.80
2018-03-03T20:36:51.998Z,86.90
2018-03-03T20:39:19.743Z,87.00
2018-03-03T20:41:47.482Z,87.50
2018-03-03T20:44:15.310Z,87.60
2018-03-03T20:46:43.079Z,87.60
2018-03-03T20:49:11.563Z,87.50
2018-03-03T20:51:39.999Z,87.60
2018-03-03T20:54:07.754Z,87.60
2018-03-03T20:56:36.312Z,87.50
2018-03-03T20:59:04.008Z,87.50
2018-03-03T21:01:31.714Z,87.40
2018-03-03T21:03:59.708Z,87.60
2018-03-03T21:06:27.464Z,90.50
2018-03-03T21:08:55.188Z,89.90
2018-03-03T21:11:29.967Z,87.20
2018-03-03T21:13:57.661Z,86.60
2018-03-03T21:16:25.385Z,86.10
2018-03-03T21:18:54.650Z,85.90
2018-03-03T21:21:23.206Z,85.90
2018-03-03T21:23:50.845Z,86.50
2018-03-03T21:26:18.503Z,85.70
2018-03-03T21:28:46.173Z,85.60
2018-03-03T21:31:13.825Z,85.20
2018-03-03T21:33:42.992Z,85.20
2018-03-03T21:36:10.714Z,85.20
2018-03-03T21:38:38.500Z,84.70
2018-03-03T21:41:06.180Z,84.50
2018-03-03T21:43:34.656Z,83.70
2018-03-03T21:46:03.142Z,83.50
2018-03-03T21:48:31.719Z,82.80
2018-03-03T21:51:00.181Z,82.40
2018-03-03T21:53:27.907Z,82.40
2018-03-03T21:55:56.343Z,82.30
2018-03-03T21:58:24.046Z,81.70
2018-03-03T22:00:51.737Z,80.50
2018-03-03T22:03:19.369Z,80.20
2018-03-03T22:05:47.104Z,79.90
2018-03-03T22:08:14.939Z,78.80
2018-03-03T22:10:42.577Z,78.20
2018-03-03T22:13:10.312Z,78.10
2018-03-03T22:15:38.017Z,77.40
2018-03-03T22:18:06.086Z,77.00
2018-03-03T22:20:33.799Z,76.90
2018-03-03T22:23:01.523Z,76.60
2018-03-03T22:25:29.322Z,76.20
2018-03-03T22:27:57.065Z,76.00
2018-03-03T22:30:25.491Z,76.00
2018-03-03T22:32:53.200Z,75.90
2018-03-03T22:35:21.710Z,75.90
2018-03-03T22:37:49.479Z,75.80
2018-03-03T22:40:17.248Z,75.80
2018-03-03T22:42:45.143Z,75.50
2018-03-03T22:45:13.617Z,75.70
2018-03-03T22:47:41.330Z,75.70
2018-03-03T22:50:10.454Z,76.20
2018-03-03T22:52:38.745Z,76.20
2018-03-03T22:55:06.459Z,76.20
2018-03-03T22:57:34.981Z,76.20
2018-03-03T23:00:02.704Z,76.10
2018-03-03T23:02:30.384Z,75.90
2018-03-03T23:04:59.045Z,76.20
2018-03-03T23:07:26.708Z,76.20
2018-03-03T23:09:54.371Z,77.00
2018-03-03T23:12:22.788Z,76.40
2018-03-03T23:14:50.453Z,76.40
2018-03-03T23:17:18.123Z,76.50
2018-03-03T23:19:45.884Z,76.40
2018-03-03T23:22:13.652Z,76.50
2018-03-03T23:24:41.403Z,76.30
2018-03-03T23:27:09.054Z,76.20
2018-03-03T23:29:36.724Z,76.60
2018-03-03T23:32:04.427Z,77.10
2018-03-03T23:34:32.065Z,77.30
2018-03-03T23:36:59.750Z,76.30
2018-03-03T23:39:27.420Z,75.20
2018-03-03T23:41:55.105Z,75.70
2018-03-03T23:44:23.606Z,75.80
2018-03-03T23:46:51.249Z,75.80
2018-03-03T23:49:19.690Z,76.00
2018-03-03T23:51:47.322Z,76.00
2018-03-03T23:54:15.013Z,76.30
2018-03-03T23:56:42.760Z,76.50
2018-03-03T23:59:11.281Z,76.60
